KMSN/MSN METAR and TAF weather

Enter ICAO airport designator
Station Type Date Time Source
KMSN METAR 2019/06/19 06:53 UTC NOAA

KMSN 190653Z AUTO 35005KT 10SM FEW044 OVC055 18/16 A2985 RMK AO2 SLP102 T01830161


Station Type Date Time Source
KMSN Decoded METAR 2019/06/19 06:53 UTC NOAA

MADISON DANE COUNTY RGNL, WI, United States (KMSN) 43-08N 89-21W 261M
Jun 19, 2019 - 02:53 AM EDT / 2019.06.19 0653 UTC
Wind: from the N (350 degrees) at 6 MPH (5 KT):0
Visibility: 10 mile(s):0
Sky conditions: overcast
Temperature: 64.9 F (18.3 C)
Dew Point: 61.0 F (16.1 C)
Relative Humidity: 86%
Pressure (altimeter): 29.85 in. Hg (1010 hPa)
ob: KMSN 190653Z AUTO 35005KT 10SM FEW044 OVC055 18/16 A2985 RMK AO2 SLP102 T01830161
cycle: 7

Station Type Date Time Source
KMSN TAF 2019/06/19 06:22 UTC NOAA

TAF KMSN 190520Z 1906/2006 00000KT P6SM BKN045
TEMPO 1907/1911 -SHRA BKN035
FM191100 00000KT P6SM VCSH OVC035
FM191600 05005KT P6SM BKN035

Example: see airport list